createdAt,value
2023-03-13T00:01:28.301Z,96749.38
2023-03-13T00:03:30.871Z,96741.66
2023-03-13T00:05:36.390Z,96747.81
2023-03-13T00:07:38.983Z,96741.00
2023-03-13T00:09:42.892Z,96735.84
2023-03-13T00:11:47.143Z,96734.28
2023-03-13T00:13:49.708Z,96732.47
2023-03-13T00:16:00.793Z,96727.38
2023-03-13T00:18:03.377Z,96733.47
2023-03-13T00:20:07.335Z,96730.94
2023-03-13T00:22:09.904Z,96733.53
2023-03-13T00:24:13.221Z,96728.28
2023-03-13T00:26:19.075Z,96724.84
2023-03-13T00:28:21.601Z,96724.78
2023-03-13T00:30:24.221Z,96720.34
2023-03-13T00:32:26.806Z,96726.47
2023-03-13T00:34:29.367Z,96721.28
2023-03-13T00:36:34.173Z,96718.72
2023-03-13T00:38:37.285Z,96723.94
2023-03-13T00:40:39.836Z,96722.91
2023-03-13T00:42:43.724Z,96728.13
2023-03-13T00:44:46.282Z,96727.00
2023-03-13T00:46:48.802Z,96726.28
2023-03-13T00:48:51.921Z,96726.28
2023-03-13T00:50:54.871Z,96727.19
2023-03-13T00:52:57.408Z,96721.06
2023-03-13T00:54:59.947Z,96722.78
2023-03-13T00:57:02.467Z,96718.31
2023-03-13T00:59:06.667Z,96715.69
2023-03-13T01:01:10.432Z,96709.59
2023-03-13T01:03:13.074Z,96719.09
2023-03-13T01:05:15.900Z,96721.69
2023-03-13T01:07:18.440Z,96709.50
2023-03-13T01:09:20.998Z,96707.75
2023-03-13T01:11:25.177Z,96711.22
2023-03-13T01:13:28.249Z,96712.91
2023-03-13T01:15:32.193Z,96696.50
2023-03-13T01:17:34.719Z,96689.69
2023-03-13T01:19:37.267Z,96691.38
2023-03-13T01:21:40.202Z,96681.09
2023-03-13T01:23:43.162Z,96681.09
2023-03-13T01:25:45.735Z,96682.78
2023-03-13T01:27:48.293Z,96676.75
2023-03-13T01:29:50.853Z,96675.91
2023-03-13T01:31:54.796Z,96664.56
2023-03-13T01:33:59.393Z,96664.56
2023-03-13T01:36:03.473Z,96669.75
2023-03-13T01:38:06.078Z,96663.63
2023-03-13T01:40:09.838Z,96660.81
2023-03-13T01:42:12.383Z,96659.84
2023-03-13T01:44:23.298Z,96658.22
2023-03-13T01:46:27.945Z,96658.84
2023-03-13T01:48:38.509Z,96644.19
2023-03-13T01:50:41.178Z,96636.38
2023-03-13T01:52:43.764Z,96630.25
2023-03-13T01:54:49.533Z,96633.69
2023-03-13T01:56:56.093Z,96635.19
2023-03-13T01:58:59.745Z,96632.13
2023-03-13T02:01:02.631Z,96617.66
2023-03-13T02:03:10.039Z,96620.13
2023-03-13T02:05:16.171Z,96609.16
2023-03-13T02:07:22.722Z,96600.56
2023-03-13T02:09:29.724Z,96607.47
2023-03-13T02:11:41.589Z,96605.22
2023-03-13T02:13:44.555Z,96596.06
2023-03-13T02:15:48.075Z,96595.50
2023-03-13T02:17:51.652Z,96593.97
2023-03-13T02:19:54.446Z,96593.97
2023-03-13T02:22:07.839Z,96587.38
2023-03-13T02:24:18.750Z,96586.44
2023-03-13T02:26:22.694Z,96584.91
2023-03-13T02:28:28.404Z,96584.56
2023-03-13T02:30:33.071Z,96588.38
2023-03-13T02:32:36.018Z,96586.94
2023-03-13T02:34:42.004Z,96588.69
2023-03-13T02:36:46.245Z,96579.41
2023-03-13T02:38:54.691Z,96579.38
2023-03-13T02:40:58.895Z,96575.06
2023-03-13T02:43:09.970Z,96567.56
2023-03-13T02:45:15.762Z,96557.66
2023-03-13T02:47:21.956Z,96554.22
2023-03-13T02:49:26.358Z,96553.94
2023-03-13T02:51:36.007Z,96550.28
2023-03-13T02:53:38.970Z,96554.91
2023-03-13T02:55:43.269Z,96542.03
2023-03-13T02:57:45.938Z,96529.94
2023-03-13T02:59:49.815Z,96528.56
2023-03-13T03:01:52.703Z,96523.47
2023-03-13T03:03:55.719Z,96519.78
2023-03-13T03:05:58.280Z,96524.53
2023-03-13T03:08:00.868Z,96519.47
2023-03-13T03:10:03.412Z,96517.50
2023-03-13T03:12:06.635Z,96502.69
2023-03-13T03:14:10.648Z,96500.88
2023-03-13T03:16:18.633Z,96498.16
2023-03-13T03:18:21.291Z,96500.00
2023-03-13T03:20:23.826Z,96488.47
2023-03-13T03:22:26.397Z,96495.47
2023-03-13T03:24:29.142Z,96487.63
2023-03-13T03:26:31.852Z,96487.47
2023-03-13T03:28:34.857Z,96484.25
2023-03-13T03:30:37.410Z,96484.00
2023-03-13T03:32:44.220Z,96466.44
2023-03-13T03:34:46.819Z,96464.28
2023-03-13T03:36:49.358Z,96473.34
2023-03-13T03:38:52.216Z,96468.72
2023-03-13T03:40:54.748Z,96475.69
2023-03-13T03:42:57.314Z,96475.91
2023-03-13T03:45:00.161Z,96466.44
2023-03-13T03:47:02.861Z,96491.13
2023-03-13T03:49:06.983Z,96497.25
2023-03-13T03:51:09.868Z,96493.75
2023-03-13T03:53:12.396Z,96492.97
2023-03-13T03:55:14.962Z,96491.88
2023-03-13T03:57:17.560Z,96494.34
2023-03-13T03:59:20.140Z,96496.47
2023-03-13T04:01:22.681Z,96493.97
2023-03-13T04:03:26.138Z,96498.28
2023-03-13T04:05:30.068Z,96497.88
2023-03-13T04:07:33.144Z,96492.41
2023-03-13T04:09:35.826Z,96500.19
2023-03-13T04:11:38.424Z,96494.56
2023-03-13T04:13:40.957Z,96488.84
2023-03-13T04:15:43.873Z,96486.69
2023-03-13T04:17:46.428Z,96487.88
2023-03-13T04:19:48.963Z,96484.16
2023-03-13T04:21:52.855Z,96480.06
2023-03-13T04:23:55.416Z,96487.47
2023-03-13T04:25:58.037Z,96488.06
2023-03-13T04:28:00.652Z,96484.38
2023-03-13T04:30:03.356Z,96478.38
2023-03-13T04:32:06.342Z,96479.91
2023-03-13T04:34:08.878Z,96477.09
2023-03-13T04:36:11.440Z,96481.34
2023-03-13T04:38:15.351Z,96478.91
2023-03-13T04:40:18.081Z,96469.69
2023-03-13T04:42:20.644Z,96469.78
2023-03-13T04:44:23.707Z,96467.81
2023-03-13T04:46:26.365Z,96456.03
2023-03-13T04:48:28.978Z,96453.06
2023-03-13T04:50:31.541Z,96461.25
2023-03-13T04:52:34.121Z,96457.66
2023-03-13T04:54:38.144Z,96460.47
2023-03-13T04:56:44.020Z,96460.78
2023-03-13T04:58:47.101Z,96453.41
2023-03-13T05:00:49.676Z,96449.78
2023-03-13T05:02:53.161Z,96447.25
2023-03-13T05:04:55.735Z,96442.03
2023-03-13T05:06:58.354Z,96444.56
2023-03-13T05:09:01.245Z,96448.16
2023-03-13T05:11:07.947Z,96443.97
2023-03-13T05:13:10.668Z,96439.16
2023-03-13T05:15:13.236Z,96441.59
2023-03-13T05:17:15.790Z,96443.91
2023-03-13T05:19:18.397Z,96434.31
2023-03-13T05:21:20.933Z,96438.31
2023-03-13T05:23:23.771Z,96433.97
2023-03-13T05:25:26.401Z,96436.34
2023-03-13T05:27:30.292Z,96438.69
2023-03-13T05:29:32.885Z,96446.63
2023-03-13T05:31:35.475Z,96445.47
2023-03-13T05:33:38.079Z,96446.94
2023-03-13T05:35:40.712Z,96453.44
2023-03-13T05:37:43.899Z,96449.16
2023-03-13T05:39:46.528Z,96444.69
2023-03-13T05:41:49.105Z,96451.31
2023-03-13T05:43:52.979Z,96438.53
2023-03-13T05:45:55.564Z,96444.44
2023-03-13T05:47:58.876Z,96440.81
2023-03-13T05:50:01.429Z,96437.09
2023-03-13T05:52:04.059Z,96447.88
2023-03-13T05:54:06.699Z,96445.94
2023-03-13T05:56:09.251Z,96434.66
2023-03-13T05:58:11.886Z,96433.13
2023-03-13T06:00:17.954Z,96441.22
2023-03-13T06:02:20.802Z,96432.97
2023-03-13T06:04:23.768Z,96433.66
2023-03-13T06:06:26.421Z,96438.53
2023-03-13T06:08:29.042Z,96448.38
2023-03-13T06:10:31.618Z,96438.44
2023-03-13T06:12:34.183Z,96433.72
2023-03-13T06:14:37.840Z,96436.75
2023-03-13T06:16:41.956Z,96431.47
2023-03-13T06:18:44.493Z,96429.63
2023-03-13T06:20:47.028Z,96431.28
2023-03-13T06:22:49.597Z,96427.69
2023-03-13T06:24:52.198Z,96424.47
2023-03-13T06:26:54.839Z,96425.38
2023-03-13T06:28:57.484Z,96426.91
2023-03-13T06:31:02.833Z,96428.50
2023-03-13T06:33:06.998Z,96413.06
2023-03-13T06:35:11.152Z,96427.22
2023-03-13T06:37:13.821Z,96428.25
2023-03-13T06:39:16.370Z,96448.09
2023-03-13T06:41:19.016Z,96423.09
2023-03-13T06:43:22.213Z,96433.22
2023-03-13T06:45:24.772Z,96434.06
2023-03-13T06:47:27.335Z,96436.31
2023-03-13T06:49:31.402Z,96448.97
2023-03-13T06:51:34.321Z,96439.69
2023-03-13T06:53:36.848Z,96446.75
2023-03-13T06:55:39.373Z,96451.75
2023-03-13T06:57:42.003Z,96446.66
2023-03-13T06:59:44.573Z,96436.66
2023-03-13T07:01:47.127Z,96432.44
2023-03-13T07:03:50.019Z,96437.53
2023-03-13T07:05:58.106Z,96429.50
2023-03-13T07:08:01.085Z,96424.97
2023-03-13T07:10:04.825Z,96429.06
2023-03-13T07:12:08.090Z,96432.31
2023-03-13T07:14:16.906Z,96428.25
2023-03-13T07:16:20.207Z,96433.97
2023-03-13T07:18:23.402Z,96425.78
2023-03-13T07:20:26.030Z,96428.34
2023-03-13T07:22:29.970Z,96436.47
2023-03-13T07:24:32.583Z,96429.91
2023-03-13T07:26:35.204Z,96441.22
2023-03-13T07:28:38.113Z,96451.47
2023-03-13T07:30:40.731Z,96447.88
2023-03-13T07:32:43.363Z,96440.06
2023-03-13T07:34:45.938Z,96446.63
2023-03-13T07:36:48.557Z,96449.38
2023-03-13T07:38:53.419Z,96442.38
2023-03-13T07:40:57.634Z,96443.03
2023-03-13T07:43:00.164Z,96442.84
2023-03-13T07:45:02.882Z,96451.06
2023-03-13T07:47:05.864Z,96446.22
2023-03-13T07:49:08.769Z,96440.00
2023-03-13T07:51:13.606Z,96439.56
2023-03-13T07:53:21.008Z,96436.63
2023-03-13T07:55:24.941Z,96450.78
2023-03-13T07:57:27.520Z,96435.69
2023-03-13T07:59:30.504Z,96428.53
2023-03-13T08:01:33.059Z,96437.16
2023-03-13T08:03:35.684Z,96432.63
2023-03-13T08:05:38.273Z,96423.94
2023-03-13T08:07:40.853Z,96426.88
2023-03-13T08:09:43.666Z,96416.19
2023-03-13T08:11:48.847Z,96416.38
2023-03-13T08:13:51.804Z,96426.13
2023-03-13T08:15:54.328Z,96405.53
2023-03-13T08:17:57.487Z,96422.59
2023-03-13T08:20:00.018Z,96408.22
2023-03-13T08:22:03.327Z,96408.00
2023-03-13T08:24:08.079Z,96407.88
2023-03-13T08:26:13.074Z,96397.72
2023-03-13T08:28:16.990Z,96394.06
2023-03-13T08:30:20.047Z,96396.16
2023-03-13T08:32:23.002Z,96388.84
2023-03-13T08:34:25.613Z,96380.00
2023-03-13T08:36:30.681Z,96385.22
2023-03-13T08:38:33.230Z,96375.03
2023-03-13T08:40:35.792Z,96371.13
2023-03-13T08:42:40.284Z,96368.44
2023-03-13T08:44:44.442Z,96373.09
2023-03-13T08:46:49.078Z,96371.22
2023-03-13T08:48:52.248Z,96372.81
2023-03-13T08:51:02.484Z,96367.59
2023-03-13T08:53:05.029Z,96360.75
2023-03-13T08:55:08.890Z,96359.34
2023-03-13T08:57:11.571Z,96363.00
2023-03-13T08:59:15.425Z,96359.53
2023-03-13T09:01:19.720Z,96358.22
2023-03-13T09:03:22.570Z,96356.38
2023-03-13T09:05:25.189Z,96371.66
2023-03-13T09:07:27.719Z,96364.66
2023-03-13T09:09:30.295Z,96375.50
2023-03-13T09:11:33.226Z,96365.31
2023-03-13T09:13:38.199Z,96354.66
2023-03-13T09:15:40.805Z,96368.69
2023-03-13T09:17:44.748Z,96364.28
2023-03-13T09:19:59.364Z,96365.19
2023-03-13T09:22:02.514Z,96369.06
2023-03-13T09:24:05.545Z,96363.50
2023-03-13T09:26:08.205Z,96363.97
2023-03-13T09:28:10.799Z,96372.66
2023-03-13T09:30:14.101Z,96357.50
2023-03-13T09:32:16.943Z,96372.28
2023-03-13T09:34:23.225Z,96374.69
2023-03-13T09:36:26.428Z,96372.72
2023-03-13T09:38:28.991Z,96373.47
2023-03-13T09:40:32.037Z,96374.09
2023-03-13T09:42:45.262Z,96383.84
2023-03-13T09:44:51.544Z,96369.31
2023-03-13T09:47:02.615Z,96375.66
2023-03-13T09:49:11.807Z,96370.31
2023-03-13T09:51:20.522Z,96374.22
2023-03-13T09:53:34.139Z,96397.19
2023-03-13T09:55:39.533Z,96386.50
2023-03-13T09:57:50.720Z,96379.47
2023-03-13T09:59:58.549Z,96379.16
2023-03-13T10:02:05.137Z,96371.94
2023-03-13T10:04:15.161Z,96359.00
2023-03-13T10:06:20.928Z,96357.78
2023-03-13T10:08:25.264Z,96349.28
2023-03-13T10:10:36.847Z,96354.94
2023-03-13T10:12:44.957Z,96354.66
2023-03-13T10:14:54.990Z,96354.84
2023-03-13T10:17:03.724Z,96357.56
2023-03-13T10:19:13.626Z,96359.25
2023-03-13T10:21:20.712Z,96361.06
2023-03-13T10:23:28.696Z,96344.53
2023-03-13T10:25:34.061Z,96337.41
2023-03-13T10:27:45.358Z,96326.94
2023-03-13T10:29:47.940Z,96363.88
2023-03-13T10:31:57.418Z,96332.25
2023-03-13T10:34:07.182Z,96339.94
2023-03-13T10:36:12.549Z,96316.59
2023-03-13T10:38:19.639Z,96340.22
2023-03-13T10:40:24.637Z,96328.56
2023-03-13T10:42:29.343Z,96312.69
2023-03-13T10:44:34.021Z,96299.03
2023-03-13T10:46:41.809Z,96304.09
2023-03-13T10:48:44.354Z,96296.28
2023-03-13T10:50:48.619Z,96309.44
2023-03-13T10:52:52.109Z,96316.16
2023-03-13T10:55:00.867Z,96289.03
2023-03-13T10:57:22.063Z,96285.28
2023-03-13T10:59:26.665Z,96285.16
2023-03-13T11:01:32.428Z,96277.41
2023-03-13T11:03:35.112Z,96271.78
2023-03-13T11:05:43.134Z,96261.38
2023-03-13T11:07:46.236Z,96253.16
2023-03-13T11:10:00.306Z,96262.06
2023-03-13T11:12:06.133Z,96263.69
2023-03-13T11:14:10.833Z,96243.13
2023-03-13T11:16:20.599Z,96231.25
2023-03-13T11:18:31.331Z,96227.72
2023-03-13T11:20:37.591Z,96214.72
2023-03-13T11:23:06.200Z,96217.34
2023-03-13T11:25:21.757Z,96211.66
2023-03-13T11:27:31.154Z,96207.06
2023-03-13T11:29:44.098Z,96216.16
2023-03-13T11:31:49.969Z,96202.59
2023-03-13T11:33:59.638Z,96196.47
2023-03-13T11:36:07.163Z,96189.41
2023-03-13T11:38:19.920Z,96182.75
2023-03-13T11:40:31.065Z,96188.84
2023-03-13T11:43:21.653Z,96175.81
2023-03-13T11:45:49.337Z,96169.09
2023-03-13T11:48:00.008Z,96162.72
2023-03-13T11:50:16.305Z,96161.69
2023-03-13T11:52:31.348Z,96151.41
2023-03-13T11:54:51.242Z,96144.13
2023-03-13T11:56:58.246Z,96147.59
2023-03-13T11:59:17.457Z,96140.78
2023-03-13T12:01:21.717Z,96133.94
2023-03-13T12:03:34.412Z,96117.22
2023-03-13T12:05:45.529Z,96113.53
2023-03-13T12:07:54.417Z,96114.34
2023-03-13T12:10:00.637Z,96097.00
2023-03-13T12:12:16.184Z,96086.00
2023-03-13T12:14:23.335Z,96082.28
2023-03-13T12:16:40.766Z,96064.09
2023-03-13T12:18:46.011Z,96059.94
2023-03-13T12:20:55.920Z,96049.22
2023-03-13T12:23:17.009Z,96050.38
2023-03-13T12:25:24.688Z,96050.84
2023-03-13T12:27:32.819Z,96054.44
2023-03-13T12:29:45.784Z,96053.94
2023-03-13T12:31:54.203Z,96043.22
2023-03-13T12:34:04.306Z,96042.53
2023-03-13T12:36:14.496Z,96016.91
2023-03-13T12:38:23.952Z,96018.59
2023-03-13T12:40:32.033Z,96008.09
2023-03-13T12:42:50.396Z,95997.72
2023-03-13T12:44:53.370Z,95986.91
2023-03-13T12:47:08.288Z,95996.91
2023-03-13T12:49:47.209Z,95977.81
2023-03-13T12:52:08.337Z,95971.69
2023-03-13T12:54:33.112Z,95972.41
2023-03-13T12:56:48.300Z,95950.34
2023-03-13T12:58:55.590Z,95945.06
2023-03-13T13:01:03.795Z,95939.84
2023-03-13T13:03:17.253Z,95930.53
2023-03-13T13:05:22.844Z,95927.47
2023-03-13T13:07:27.630Z,95916.19
2023-03-13T13:09:32.319Z,95912.38
2023-03-13T13:11:48.332Z,95903.97
2023-03-13T13:13:52.242Z,95908.13
2023-03-13T13:16:02.193Z,95903.06
2023-03-13T13:18:24.041Z,95894.91
2023-03-13T13:20:42.143Z,95891.78
2023-03-13T13:22:52.472Z,95883.22
2023-03-13T13:24:56.534Z,95888.53
2023-03-13T13:26:59.153Z,95883.38
2023-03-13T13:29:41.485Z,95873.75
2023-03-13T13:32:00.176Z,95867.31
2023-03-13T13:34:02.792Z,95846.25
2023-03-13T13:36:28.404Z,95853.38
2023-03-13T13:38:36.785Z,95852.84
2023-03-13T13:40:42.414Z,95847.56
2023-03-13T13:42:49.325Z,95845.38
2023-03-13T13:44:58.807Z,95834.59
2023-03-13T13:47:03.032Z,95831.91
2023-03-13T13:49:15.662Z,95834.31
2023-03-13T13:51:28.667Z,95824.28
2023-03-13T13:53:34.190Z,95824.69
2023-03-13T13:55:44.928Z,95816.91
2023-03-13T13:57:49.340Z,95816.06
2023-03-13T13:59:54.281Z,95801.50
2023-03-13T14:02:18.500Z,95796.50
2023-03-13T14:04:28.927Z,95797.38
2023-03-13T14:06:36.945Z,95807.81
2023-03-13T14:08:41.469Z,95789.59
2023-03-13T14:10:46.822Z,95779.59
2023-03-13T14:12:53.997Z,95789.50
2023-03-13T14:15:24.904Z,95772.81
2023-03-13T14:17:28.793Z,95779.06
2023-03-13T14:19:38.933Z,95769.50
2023-03-13T14:21:41.799Z,95776.47
2023-03-13T14:23:46.396Z,95767.06
2023-03-13T14:25:50.452Z,95757.97
2023-03-13T14:27:54.635Z,95761.72
2023-03-13T14:30:03.788Z,95751.28
2023-03-13T14:32:07.157Z,95753.78
2023-03-13T14:34:14.092Z,95747.84
2023-03-13T14:36:16.765Z,95751.13
2023-03-13T14:38:21.107Z,95731.22
2023-03-13T14:40:28.760Z,95728.22
2023-03-13T14:42:39.989Z,95723.66
2023-03-13T14:44:46.437Z,95720.66
2023-03-13T14:46:49.091Z,95721.31
2023-03-13T14:48:55.580Z,95718.97
2023-03-13T14:51:14.775Z,95723.94
2023-03-13T14:53:19.996Z,95702.72
2023-03-13T14:55:35.142Z,95709.53
2023-03-13T14:57:37.770Z,95695.56
2023-03-13T14:59:40.391Z,95700.09
2023-03-13T15:01:43.006Z,95701.75
2023-03-13T15:03:46.860Z,95694.53
2023-03-13T15:05:51.615Z,95688.09
2023-03-13T15:07:56.153Z,95696.22
2023-03-13T15:10:00.369Z,95670.41
2023-03-13T15:12:02.914Z,95659.13
2023-03-13T15:14:25.608Z,95661.16
2023-03-13T15:16:29.508Z,95653.19
2023-03-13T15:18:35.637Z,95648.03
2023-03-13T15:20:38.183Z,95653.31
2023-03-13T15:22:42.057Z,95636.63
2023-03-13T15:24:59.582Z,95635.47
2023-03-13T15:27:16.092Z,95640.09
2023-03-13T15:29:20.135Z,95608.97
2023-03-13T15:31:28.639Z,95620.22
2023-03-13T15:33:31.688Z,95617.06
2023-03-13T15:35:35.432Z,95616.06
2023-03-13T15:37:38.027Z,95599.84
2023-03-13T15:39:40.823Z,95599.47
2023-03-13T15:41:44.731Z,95593.50
2023-03-13T15:43:47.511Z,95585.56
2023-03-13T15:45:52.329Z,95583.38
2023-03-13T15:47:54.945Z,95575.75
2023-03-13T15:49:57.520Z,95566.81
2023-03-13T15:52:00.093Z,95560.22
2023-03-13T15:54:03.167Z,95567.34
2023-03-13T15:56:14.076Z,95562.88
2023-03-13T15:58:18.795Z,95550.47
2023-03-13T16:00:23.747Z,95546.31
2023-03-13T16:02:26.288Z,95540.19
2023-03-13T16:04:28.866Z,95540.34
2023-03-13T16:06:32.330Z,95541.47
2023-03-13T16:08:36.153Z,95537.47
2023-03-13T16:10:39.514Z,95538.09
2023-03-13T16:12:42.133Z,95547.47
2023-03-13T16:14:46.941Z,95532.75
2023-03-13T16:16:52.611Z,95534.53
2023-03-13T16:18:59.082Z,95519.47
2023-03-13T16:21:01.608Z,95517.31
2023-03-13T16:23:04.233Z,95512.88
2023-03-13T16:25:08.681Z,95519.81
2023-03-13T16:27:14.983Z,95512.47
2023-03-13T16:29:17.965Z,95496.59
2023-03-13T16:31:23.740Z,95496.41
2023-03-13T16:33:26.300Z,95498.53
2023-03-13T16:35:29.791Z,95491.38
2023-03-13T16:37:32.452Z,95485.25
2023-03-13T16:39:34.982Z,95486.53
2023-03-13T16:41:39.010Z,95477.63
2023-03-13T16:43:41.594Z,95469.00
2023-03-13T16:45:44.447Z,95460.91
2023-03-13T16:47:49.677Z,95454.22
2023-03-13T16:49:52.202Z,95458.59
2023-03-13T16:51:54.907Z,95454.41
2023-03-13T16:54:00.287Z,95440.91
2023-03-13T16:56:02.861Z,95439.22
2023-03-13T16:58:06.016Z,95444.75
2023-03-13T17:00:14.830Z,95441.22
2023-03-13T17:02:18.814Z,95434.88
2023-03-13T17:04:22.762Z,95432.41
2023-03-13T17:06:28.268Z,95432.94
2023-03-13T17:08:30.813Z,95432.56
2023-03-13T17:10:34.885Z,95436.69
2023-03-13T17:12:37.409Z,95434.13
2023-03-13T17:14:39.974Z,95429.75
2023-03-13T17:16:44.628Z,95429.47
2023-03-13T17:18:49.938Z,95419.00
2023-03-13T17:20:54.702Z,95419.28
2023-03-13T17:22:57.996Z,95422.88
2023-03-13T17:25:00.539Z,95427.09
2023-03-13T17:27:03.351Z,95419.25
2023-03-13T17:29:07.303Z,95411.44
2023-03-13T17:31:11.185Z,95402.16
2023-03-13T17:33:16.672Z,95401.94
2023-03-13T17:35:20.843Z,95407.34
2023-03-13T17:37:26.626Z,95409.72
2023-03-13T17:39:29.144Z,95410.22
2023-03-13T17:41:33.426Z,95405.97
2023-03-13T17:43:35.980Z,95398.97
2023-03-13T17:45:38.530Z,95395.63
2023-03-13T17:47:42.013Z,95386.38
2023-03-13T17:49:45.391Z,95378.09
2023-03-13T17:51:49.847Z,95371.47
2023-03-13T17:53:55.084Z,95377.31
2023-03-13T17:55:57.848Z,95368.06
2023-03-13T17:58:00.397Z,95357.38
2023-03-13T18:00:03.864Z,95344.19
2023-03-13T18:02:06.517Z,95344.50
2023-03-13T18:04:09.383Z,95340.34
2023-03-13T18:06:19.438Z,95334.69
2023-03-13T18:08:22.003Z,95335.94
2023-03-13T18:10:27.858Z,95319.78
2023-03-13T18:12:31.126Z,95309.25
2023-03-13T18:14:36.024Z,95302.47
2023-03-13T18:16:43.141Z,95314.25
2023-03-13T18:18:46.130Z,95311.06
2023-03-13T18:20:48.657Z,95302.34
2023-03-13T18:22:51.837Z,95302.88
2023-03-13T18:24:54.382Z,95296.75
2023-03-13T18:26:58.268Z,95300.53
2023-03-13T18:29:01.736Z,95293.09
2023-03-13T18:31:04.536Z,95293.25
2023-03-13T18:33:07.255Z,95290.13
2023-03-13T18:35:10.255Z,95284.28
2023-03-13T18:37:21.580Z,95284.16
2023-03-13T18:39:24.183Z,95274.59
2023-03-13T18:41:26.719Z,95267.06
2023-03-13T18:43:30.632Z,95295.88
2023-03-13T18:45:33.477Z,95278.22
2023-03-13T18:47:36.828Z,95302.31
2023-03-13T18:49:39.393Z,95306.41
2023-03-13T18:51:41.969Z,95361.09
2023-03-13T18:53:44.990Z,95418.13
2023-03-13T18:55:47.564Z,95448.25
2023-03-13T18:57:50.301Z,95415.97
2023-03-13T18:59:54.188Z,95419.22
2023-03-13T19:01:56.773Z,95418.16
2023-03-13T19:04:00.784Z,95411.69
2023-03-13T19:06:03.646Z,95409.19
2023-03-13T19:08:06.248Z,95398.00
2023-03-13T19:10:20.315Z,95402.41
2023-03-13T19:12:25.981Z,95405.03
2023-03-13T19:14:28.519Z,95380.16
2023-03-13T19:16:37.895Z,95369.22
2023-03-13T19:18:40.644Z,95375.00
2023-03-13T19:20:43.331Z,95389.13
2023-03-13T19:22:45.884Z,95393.25
2023-03-13T19:24:48.545Z,95392.00
2023-03-13T19:26:53.800Z,95402.94
2023-03-13T19:28:56.826Z,95388.81
2023-03-13T19:30:59.409Z,95395.59
2023-03-13T19:33:03.376Z,95403.59
2023-03-13T19:35:06.849Z,95395.31
2023-03-13T19:37:10.948Z,95399.03
2023-03-13T19:39:15.749Z,95407.31
2023-03-13T19:41:18.366Z,95403.59
2023-03-13T19:43:20.930Z,95397.78
2023-03-13T19:45:23.486Z,95415.75
2023-03-13T19:47:26.038Z,95397.47
2023-03-13T19:49:30.023Z,95385.59
2023-03-13T19:51:32.778Z,95452.34
2023-03-13T19:53:35.347Z,95443.09
2023-03-13T19:55:37.918Z,95463.53
2023-03-13T19:57:40.489Z,95515.13
2023-03-13T19:59:43.030Z,95552.16
2023-03-13T20:01:46.798Z,95613.25
2023-03-13T20:03:49.467Z,95636.94
2023-03-13T20:05:53.367Z,95745.03
2023-03-13T20:07:55.970Z,95720.00
2023-03-13T20:09:58.586Z,95702.50
2023-03-13T20:12:01.142Z,95717.19
2023-03-13T20:14:04.650Z,95726.00
2023-03-13T20:16:08.185Z,95720.63
2023-03-13T20:18:11.241Z,95728.63
2023-03-13T20:20:14.382Z,95740.81
2023-03-13T20:22:18.303Z,95731.38
2023-03-13T20:24:20.887Z,95756.56
2023-03-13T20:26:23.429Z,95781.84
2023-03-13T20:28:26.090Z,95794.47
2023-03-13T20:30:28.629Z,95807.56
2023-03-13T20:32:31.233Z,95803.03
2023-03-13T20:34:34.796Z,95819.81
2023-03-13T20:36:37.327Z,95839.22
2023-03-13T20:38:42.311Z,95858.16
2023-03-13T20:40:52.440Z,95857.31
2023-03-13T20:42:55.486Z,95849.19
2023-03-13T20:44:58.493Z,95859.78
2023-03-13T20:47:01.052Z,95856.66
2023-03-13T20:49:03.630Z,95859.13
2023-03-13T20:51:07.102Z,95853.16
2023-03-13T20:53:10.068Z,95856.34
2023-03-13T20:55:14.033Z,95851.13
2023-03-13T20:57:19.309Z,95858.97
2023-03-13T20:59:21.877Z,95863.88
2023-03-13T21:01:26.932Z,95868.13
2023-03-13T21:03:31.786Z,95880.59
2023-03-13T21:05:34.420Z,95884.78
2023-03-13T21:07:36.990Z,95895.56
2023-03-13T21:09:39.548Z,95887.28
2023-03-13T21:11:43.513Z,95890.13
2023-03-13T21:13:46.459Z,95890.31
2023-03-13T21:15:49.032Z,95900.78
2023-03-13T21:17:52.156Z,95893.47
2023-03-13T21:19:55.189Z,95894.53
2023-03-13T21:21:57.750Z,95892.66
2023-03-13T21:24:00.283Z,95880.94
2023-03-13T21:26:02.872Z,95856.03
2023-03-13T21:28:06.873Z,95835.34
2023-03-13T21:30:11.993Z,95824.66
2023-03-13T21:32:15.688Z,95811.91
2023-03-13T21:34:18.298Z,95795.81
2023-03-13T21:36:22.455Z,95782.84
2023-03-13T21:38:25.055Z,95776.31
2023-03-13T21:40:28.600Z,95790.22
2023-03-13T21:42:31.141Z,95808.31
2023-03-13T21:44:35.812Z,95812.41
2023-03-13T21:46:38.401Z,95815.25
2023-03-13T21:48:42.266Z,95792.69
2023-03-13T21:50:45.086Z,95770.28
2023-03-13T21:52:47.676Z,95737.34
2023-03-13T21:54:50.843Z,95735.47
2023-03-13T21:56:53.712Z,95734.53
2023-03-13T21:58:56.263Z,95744.16
2023-03-13T22:01:00.803Z,95736.19
2023-03-13T22:03:03.662Z,95727.41
2023-03-13T22:05:06.865Z,95723.75
2023-03-13T22:07:09.538Z,95715.91
2023-03-13T22:09:12.095Z,95702.00
2023-03-13T22:11:15.708Z,95694.16
2023-03-13T22:13:18.334Z,95685.25
2023-03-13T22:15:20.876Z,95677.53
2023-03-13T22:17:24.810Z,95667.06
2023-03-13T22:19:27.353Z,95642.59
2023-03-13T22:21:29.885Z,95642.69
2023-03-13T22:23:32.554Z,95633.91
2023-03-13T22:25:35.170Z,95625.38
2023-03-13T22:27:37.735Z,95618.44
2023-03-13T22:29:40.374Z,95635.50
2023-03-13T22:31:42.919Z,95642.63
2023-03-13T22:33:46.846Z,95633.25
2023-03-13T22:35:52.097Z,95637.50
2023-03-13T22:37:54.832Z,95627.28
2023-03-13T22:39:57.356Z,95606.25
2023-03-13T22:41:59.915Z,95606.16
2023-03-13T22:44:02.494Z,95607.38
2023-03-13T22:46:06.992Z,95610.50
2023-03-13T22:48:09.560Z,95610.44
2023-03-13T22:50:14.023Z,95619.09
2023-03-13T22:52:16.591Z,95625.13
2023-03-13T22:54:19.134Z,95637.63
2023-03-13T22:56:21.953Z,95638.25
2023-03-13T22:58:24.515Z,95663.66
2023-03-13T23:00:27.253Z,95670.75
2023-03-13T23:02:30.338Z,95678.78
2023-03-13T23:04:32.868Z,95677.22
2023-03-13T23:06:36.755Z,95683.13
2023-03-13T23:08:39.358Z,95685.00
2023-03-13T23:10:43.117Z,95686.78
2023-03-13T23:12:46.104Z,95707.47
2023-03-13T23:14:48.830Z,95723.88
2023-03-13T23:16:51.470Z,95736.66
2023-03-13T23:18:54.051Z,95748.88
2023-03-13T23:20:56.590Z,95756.41
2023-03-13T23:23:00.580Z,95765.69
2023-03-13T23:25:03.128Z,95767.72
2023-03-13T23:27:06.469Z,95766.13
2023-03-13T23:29:09.094Z,95771.34
2023-03-13T23:31:13.249Z,95754.31
2023-03-13T23:33:18.811Z,95748.16
2023-03-13T23:35:21.956Z,95739.69
2023-03-13T23:37:24.481Z,95728.47
2023-03-13T23:39:28.442Z,95728.59
2023-03-13T23:41:31.375Z,95712.63
2023-03-13T23:43:34.204Z,95707.50
2023-03-13T23:45:37.067Z,95733.59
2023-03-13T23:47:39.642Z,95723.47
2023-03-13T23:49:42.390Z,95695.19
2023-03-13T23:51:44.929Z,95693.38
2023-03-13T23:53:47.462Z,95696.59
2023-03-13T23:55:59.147Z,95684.41
2023-03-13T23:58:01.751Z,95682.19
